createdAt,value
2018-06-23T00:00:54.170Z,3.63
2018-06-23T00:03:22.739Z,3.83
2018-06-23T00:05:51.384Z,3.67
2018-06-23T00:08:19.918Z,3.60
2018-06-23T00:10:48.488Z,4.17
2018-06-23T00:13:17.131Z,3.13
2018-06-23T00:28:45.120Z,3.40
2018-06-23T00:31:13.788Z,3.90
2018-06-23T00:33:42.347Z,5.50
2018-06-23T00:36:10.920Z,4.47
2018-06-23T00:38:39.443Z,7.20
2018-06-23T00:41:08.163Z,5.30
2018-06-23T00:43:36.809Z,5.17
2018-06-23T00:46:05.463Z,3.80
2018-06-23T00:48:34.051Z,4.30
2018-06-23T00:51:02.722Z,4.00
2018-06-23T00:53:31.416Z,4.60
2018-06-23T00:56:00.723Z,4.37
2018-06-23T00:58:34.445Z,4.50
2018-06-23T01:01:03.381Z,5.50
2018-06-23T01:03:32.195Z,3.70
2018-06-23T01:06:01.071Z,4.57
2018-06-23T01:08:29.775Z,4.57
2018-06-23T01:10:58.393Z,4.67
2018-06-23T01:13:27.312Z,4.53
2018-06-23T01:15:56.285Z,4.33
2018-06-23T01:18:24.903Z,4.37
2018-06-23T01:20:53.765Z,4.73
2018-06-23T01:23:22.546Z,4.30
2018-06-23T01:25:51.456Z,4.93
2018-06-23T01:28:19.990Z,4.33
2018-06-23T01:30:48.727Z,4.10
2018-06-23T01:33:17.086Z,4.47
2018-06-23T01:35:46.087Z,4.47
2018-06-23T01:38:14.744Z,3.80
2018-06-23T01:40:43.618Z,3.90
2018-06-23T01:43:12.450Z,5.23
2018-06-23T01:45:41.504Z,3.90
2018-06-23T01:48:10.170Z,4.63
2018-06-23T01:50:38.863Z,4.67
2018-06-23T01:53:07.571Z,4.87
2018-06-23T01:55:36.374Z,5.20
2018-06-23T01:58:04.970Z,4.17
2018-06-23T02:00:33.735Z,4.17
2018-06-23T02:03:02.439Z,3.47
2018-06-23T02:05:30.991Z,5.07
2018-06-23T02:07:59.707Z,4.00
2018-06-23T02:10:28.824Z,5.20
2018-06-23T02:12:57.480Z,4.60
2018-06-23T02:15:38.211Z,4.30
2018-06-23T02:18:12.232Z,4.43
2018-06-23T02:20:46.019Z,4.27
2018-06-23T02:23:20.137Z,4.30
2018-06-23T02:25:54.345Z,5.13
2018-06-23T02:28:28.287Z,4.67
2018-06-23T02:31:02.191Z,4.80
2018-06-23T02:33:36.019Z,4.13
2018-06-23T02:36:04.895Z,4.50
2018-06-23T02:38:33.703Z,4.90
2018-06-23T02:41:02.487Z,4.77
2018-06-23T02:43:31.217Z,5.40
2018-06-23T02:45:59.955Z,4.80
2018-06-23T02:48:28.627Z,4.13
2018-06-23T02:50:57.379Z,4.60
2018-06-23T02:53:26.105Z,4.27
2018-06-23T02:55:54.825Z,4.80
2018-06-23T02:58:23.443Z,4.30
2018-06-23T03:00:52.267Z,4.77
2018-06-23T03:03:21.123Z,4.90
2018-06-23T03:05:49.692Z,4.57
2018-06-23T03:08:18.320Z,4.73
2018-06-23T03:10:46.971Z,5.47
2018-06-23T03:13:15.562Z,4.70
2018-06-23T03:15:44.289Z,4.23
2018-06-23T03:18:13.080Z,4.43
2018-06-23T03:20:41.891Z,5.00
2018-06-23T03:23:10.640Z,4.90
2018-06-23T03:25:39.291Z,4.63
2018-06-23T03:28:07.933Z,4.67
2018-06-23T03:30:36.603Z,4.80
2018-06-23T03:33:05.522Z,5.43
2018-06-23T03:35:34.289Z,4.40
2018-06-23T03:38:02.897Z,4.67
2018-06-23T03:40:31.906Z,4.90
2018-06-23T03:43:00.795Z,4.50
2018-06-23T03:45:29.788Z,4.83
2018-06-23T03:47:58.688Z,4.20
2018-06-23T03:50:27.344Z,4.53
2018-06-23T03:52:56.088Z,5.47
2018-06-23T03:55:24.767Z,5.37
2018-06-23T03:57:53.493Z,4.80
2018-06-23T04:00:22.339Z,5.23
2018-06-23T04:02:51.256Z,5.43
2018-06-23T04:05:20.351Z,5.67
2018-06-23T04:07:49.242Z,4.70
2018-06-23T04:10:17.899Z,4.30
2018-06-23T04:12:46.886Z,5.53
2018-06-23T04:15:15.419Z,4.93
2018-06-23T04:17:43.979Z,5.67
2018-06-23T04:20:12.775Z,4.70
2018-06-23T04:22:41.520Z,4.73
2018-06-23T04:25:10.315Z,5.30
2018-06-23T04:27:39.211Z,5.33
2018-06-23T04:30:08.179Z,4.57
2018-06-23T04:32:36.824Z,6.10
2018-06-23T04:35:05.647Z,4.77
2018-06-23T04:37:34.397Z,4.47
2018-06-23T04:40:03.122Z,4.57
2018-06-23T04:42:31.835Z,5.70
2018-06-23T04:45:00.404Z,5.90
2018-06-23T04:47:29.131Z,6.00
2018-06-23T04:49:57.887Z,5.60
2018-06-23T04:52:26.667Z,5.20
2018-06-23T04:54:55.346Z,5.30
2018-06-23T04:57:24.075Z,5.10
2018-06-23T04:59:52.760Z,4.80
2018-06-23T05:02:21.391Z,4.80
2018-06-23T05:04:49.918Z,5.20
2018-06-23T05:07:18.842Z,5.30
2018-06-23T05:09:47.474Z,4.80
2018-06-23T05:12:16.044Z,4.97
2018-06-23T05:14:44.770Z,4.93
2018-06-23T05:17:13.355Z,4.87
2018-06-23T05:19:42.248Z,5.43
2018-06-23T05:22:11.137Z,4.47
2018-06-23T05:24:39.766Z,5.93
2018-06-23T05:27:08.583Z,5.23
2018-06-23T05:29:37.383Z,4.57
2018-06-23T05:32:06.282Z,5.80
2018-06-23T05:34:34.863Z,5.00
2018-06-23T05:37:03.550Z,5.07
2018-06-23T05:39:32.207Z,4.77
2018-06-23T05:42:00.862Z,5.20
2018-06-23T05:44:29.611Z,5.33
2018-06-23T05:46:58.273Z,5.00
2018-06-23T05:49:27.003Z,4.30
2018-06-23T05:51:55.681Z,5.43
2018-06-23T05:54:24.652Z,4.80
2018-06-23T05:56:53.472Z,5.10
2018-06-23T05:59:22.324Z,5.37
2018-06-23T06:01:51.311Z,4.73
2018-06-23T06:04:19.815Z,5.77
2018-06-23T06:06:48.631Z,5.23
2018-06-23T06:09:17.266Z,4.50
2018-06-23T06:11:45.985Z,5.27
2018-06-23T06:14:14.579Z,5.60
2018-06-23T06:17:23.768Z,5.33
2018-06-23T06:19:56.418Z,5.70
2018-06-23T06:22:26.117Z,5.73
2018-06-23T06:24:54.803Z,5.77
2018-06-23T06:27:23.376Z,7.10
2018-06-23T06:29:52.973Z,4.90
2018-06-23T06:32:21.910Z,6.23
2018-06-23T06:34:50.491Z,7.73
2018-06-23T06:37:19.182Z,5.80
2018-06-23T06:39:47.922Z,6.70
2018-06-23T06:42:16.735Z,5.93
2018-06-23T06:44:45.292Z,6.80
2018-06-23T06:47:16.819Z,6.97
2018-06-23T06:49:45.652Z,7.33
2018-06-23T06:52:14.380Z,7.53
2018-06-23T06:54:43.734Z,7.77
2018-06-23T06:57:12.405Z,8.13
2018-06-23T06:59:41.063Z,7.80
2018-06-23T07:02:09.850Z,8.00
2018-06-23T07:04:38.406Z,8.13
2018-06-23T07:07:07.176Z,8.00
2018-06-23T07:09:36.203Z,8.43
2018-06-23T07:12:04.838Z,8.03
2018-06-23T07:14:33.628Z,8.27
2018-06-23T07:17:02.254Z,7.90
2018-06-23T07:19:31.043Z,8.37
2018-06-23T07:21:59.590Z,9.10
2018-06-23T07:24:28.388Z,7.70
2018-06-23T07:26:57.632Z,7.17
2018-06-23T07:29:26.340Z,7.53
2018-06-23T07:31:55.015Z,7.30
2018-06-23T07:34:23.794Z,7.80
2018-06-23T07:36:52.707Z,7.23
2018-06-23T07:39:21.513Z,7.57
2018-06-23T07:41:50.187Z,8.70
2018-06-23T07:44:19.030Z,8.23
2018-06-23T07:46:47.713Z,7.20
2018-06-23T07:49:16.487Z,8.77
2018-06-23T07:51:45.075Z,9.20
2018-06-23T07:54:13.755Z,8.57
2018-06-23T07:56:42.483Z,8.87
2018-06-23T07:59:11.118Z,8.67
2018-06-23T08:01:39.760Z,7.07
2018-06-23T08:04:08.488Z,7.30
2018-06-23T08:06:37.543Z,6.53
2018-06-23T08:09:07.050Z,7.10
2018-06-23T08:11:35.761Z,6.90
2018-06-23T08:14:04.705Z,6.30
2018-06-23T08:16:33.314Z,6.20
2018-06-23T08:19:01.907Z,5.10
2018-06-23T08:21:30.509Z,5.30
2018-06-23T08:23:59.366Z,5.50
2018-06-23T08:26:28.095Z,4.73
2018-06-23T08:28:56.584Z,4.70
2018-06-23T08:31:25.095Z,4.07
2018-06-23T08:33:53.782Z,4.20
2018-06-23T08:36:22.416Z,4.40
2018-06-23T08:38:51.194Z,4.60
2018-06-23T08:41:19.818Z,4.47
2018-06-23T08:43:48.564Z,5.23
2018-06-23T08:46:17.174Z,5.70
2018-06-23T08:48:46.016Z,5.30
2018-06-23T08:51:14.765Z,5.43
2018-06-23T09:14:28.771Z,3.67
2018-06-23T09:16:57.965Z,3.60
2018-06-23T09:19:26.938Z,3.67
2018-06-23T09:21:55.668Z,3.90
2018-06-23T09:24:24.535Z,3.27
2018-06-23T09:26:53.211Z,3.67
2018-06-23T09:29:22.052Z,3.60
2018-06-23T09:31:50.902Z,3.80
2018-06-23T09:34:19.536Z,3.40
2018-06-23T09:36:48.267Z,3.47
2018-06-23T09:39:16.919Z,3.27
2018-06-23T09:41:45.956Z,2.63
2018-06-23T09:44:14.628Z,2.50
2018-06-23T09:46:43.341Z,3.07
2018-06-23T09:49:11.927Z,2.67
2018-06-23T09:51:40.681Z,2.67
2018-06-23T09:54:09.484Z,2.60
2018-06-23T09:56:38.102Z,2.97
2018-06-23T09:59:06.925Z,3.60
2018-06-23T10:01:36.231Z,3.10
2018-06-23T10:04:05.239Z,3.00
2018-06-23T10:06:34.444Z,3.20
2018-06-23T10:09:03.122Z,3.00
2018-06-23T10:11:31.726Z,3.10
2018-06-23T10:14:00.231Z,3.30
2018-06-23T10:16:28.743Z,3.17
2018-06-23T10:18:57.295Z,3.43
2018-06-23T10:21:25.972Z,3.13
2018-06-23T10:23:54.707Z,3.73
2018-06-23T10:26:23.563Z,3.77
2018-06-23T10:28:52.082Z,2.90
2018-06-23T10:31:20.825Z,2.63
2018-06-23T10:33:49.561Z,2.90
2018-06-23T10:36:18.290Z,3.10
2018-06-23T10:38:46.918Z,3.23
2018-06-23T10:41:15.473Z,2.67
2018-06-23T10:43:44.023Z,2.70
2018-06-23T10:46:12.770Z,2.60
2018-06-23T10:48:41.644Z,2.87
2018-06-23T10:51:10.319Z,2.70
2018-06-23T10:53:39.212Z,2.90
2018-06-23T10:56:07.828Z,3.50
2018-06-23T10:58:36.802Z,2.67
2018-06-23T11:01:05.752Z,3.20
2018-06-23T11:03:34.315Z,3.07
2018-06-23T11:06:03.020Z,2.87
2018-06-23T11:08:31.957Z,2.90
2018-06-23T11:11:00.655Z,2.83
2018-06-23T11:13:29.356Z,2.77
2018-06-23T11:15:58.075Z,3.63
2018-06-23T11:18:26.792Z,3.10
2018-06-23T11:20:55.590Z,3.80
2018-06-23T11:23:24.256Z,3.20
2018-06-23T11:25:52.923Z,3.17
2018-06-23T11:28:21.895Z,3.00
2018-06-23T11:30:50.588Z,3.57
2018-06-23T11:33:19.341Z,3.67
2018-06-23T11:35:48.063Z,3.03
2018-06-23T11:38:16.670Z,3.00
2018-06-23T11:40:45.301Z,3.00
2018-06-23T11:43:13.947Z,2.80
2018-06-23T11:45:42.806Z,4.00
2018-06-23T11:48:11.483Z,3.50
2018-06-23T11:50:39.967Z,2.90
2018-06-23T11:53:08.837Z,3.27
2018-06-23T11:55:37.603Z,3.30
2018-06-23T11:58:06.539Z,3.90
2018-06-23T12:00:35.384Z,3.50
2018-06-23T12:03:04.181Z,3.50
2018-06-23T12:05:33.083Z,3.30
2018-06-23T12:08:01.892Z,3.13
2018-06-23T12:10:30.399Z,3.13
2018-06-23T12:12:59.045Z,3.23
2018-06-23T12:15:28.010Z,3.63
2018-06-23T12:17:56.691Z,3.17
2018-06-23T12:20:25.331Z,3.47
2018-06-23T12:22:53.957Z,4.10
2018-06-23T12:25:22.734Z,3.50
2018-06-23T12:27:51.738Z,4.00
2018-06-23T12:30:20.432Z,3.07
2018-06-23T12:32:49.099Z,3.90
2018-06-23T12:35:17.664Z,3.80
2018-06-23T12:37:46.302Z,3.50
2018-06-23T12:40:14.968Z,3.20
2018-06-23T12:42:43.766Z,3.20
2018-06-23T12:45:11.986Z,3.63
2018-06-23T12:47:40.870Z,3.50
2018-06-23T12:50:09.731Z,5.60
2018-06-23T12:52:38.600Z,4.10
2018-06-23T12:55:07.594Z,3.57
2018-06-23T12:57:36.594Z,3.40
2018-06-23T13:00:06.417Z,3.00
2018-06-23T13:02:34.933Z,3.03
2018-06-23T13:05:03.679Z,3.00
2018-06-23T13:07:32.312Z,3.47
2018-06-23T13:10:00.952Z,3.23
2018-06-23T13:12:29.494Z,3.40
2018-06-23T13:14:58.081Z,3.23
2018-06-23T13:17:26.684Z,2.97
2018-06-23T13:19:55.223Z,3.30
2018-06-23T13:22:23.751Z,2.90
2018-06-23T13:24:52.392Z,3.77
2018-06-23T13:27:21.160Z,3.17
2018-06-23T13:29:49.795Z,3.50
2018-06-23T13:32:18.648Z,3.40
2018-06-23T13:34:46.796Z,3.23
2018-06-23T13:37:15.795Z,2.97
2018-06-23T13:39:44.621Z,3.10
2018-06-23T13:42:13.600Z,2.93
2018-06-23T13:44:42.396Z,3.20
2018-06-23T13:47:11.203Z,3.00
2018-06-23T13:49:40.241Z,2.70
2018-06-23T13:52:08.887Z,2.53
2018-06-23T13:54:37.504Z,2.40
2018-06-23T13:57:06.169Z,3.30
2018-06-23T13:59:34.788Z,3.07
2018-06-23T14:02:03.519Z,2.93
2018-06-23T14:04:32.155Z,3.20
2018-06-23T14:07:01.085Z,2.77
2018-06-23T14:09:29.715Z,3.40
2018-06-23T14:11:58.511Z,3.10
2018-06-23T14:14:27.088Z,3.27
2018-06-23T14:16:55.698Z,3.70
2018-06-23T14:19:24.261Z,3.20
2018-06-23T14:21:52.994Z,3.40
2018-06-23T14:24:21.604Z,3.63
2018-06-23T14:26:50.333Z,3.57
2018-06-23T14:29:19.088Z,2.77
2018-06-23T14:31:47.945Z,3.10
2018-06-23T14:34:16.386Z,3.20
2018-06-23T14:36:45.344Z,2.83
2018-06-23T14:39:13.968Z,2.97
2018-06-23T14:41:42.621Z,3.13
2018-06-23T14:44:11.399Z,3.00
2018-06-23T14:46:40.152Z,2.77
2018-06-23T14:49:08.964Z,2.70
2018-06-23T14:51:37.622Z,2.73
2018-06-23T14:54:06.583Z,2.93
2018-06-23T14:56:35.295Z,2.87
2018-06-23T14:59:03.998Z,3.30
2018-06-23T15:01:32.879Z,3.57
2018-06-23T15:04:01.499Z,3.00
2018-06-23T15:06:30.163Z,3.40
2018-06-23T15:09:10.069Z,2.80
2018-06-23T15:11:49.788Z,3.80
2018-06-23T15:14:18.695Z,3.90
2018-06-23T15:16:47.411Z,3.20
2018-06-23T15:19:16.314Z,3.50
2018-06-23T15:21:45.127Z,2.97
2018-06-23T15:24:13.777Z,3.40
2018-06-23T15:26:42.437Z,3.20
2018-06-23T15:29:11.133Z,3.40
2018-06-23T15:31:40.066Z,3.10
2018-06-23T15:34:08.709Z,3.80
2018-06-23T15:36:37.335Z,3.33
2018-06-23T15:39:08.389Z,3.80
2018-06-23T15:41:36.946Z,3.50
2018-06-23T15:44:05.589Z,3.50
2018-06-23T15:46:34.318Z,3.07
2018-06-23T15:49:02.948Z,3.20
2018-06-23T15:51:31.488Z,2.90
2018-06-23T15:54:00.046Z,3.07
2018-06-23T15:56:28.647Z,2.90
2018-06-23T15:58:57.180Z,3.03
2018-06-23T16:01:25.833Z,2.97
2018-06-23T16:03:54.607Z,3.17
2018-06-23T16:06:23.106Z,3.33
2018-06-23T16:08:51.920Z,3.13
2018-06-23T16:11:20.431Z,3.20
2018-06-23T16:13:49.052Z,2.80
2018-06-23T16:16:17.756Z,3.00
2018-06-23T16:18:46.409Z,2.87
2018-06-23T16:21:15.121Z,3.40
2018-06-23T16:23:43.883Z,2.87
2018-06-23T16:26:12.506Z,3.50
2018-06-23T16:28:41.141Z,2.90
2018-06-23T16:31:09.845Z,2.93
2018-06-23T16:33:38.508Z,2.63
2018-06-23T16:36:07.199Z,3.07
2018-06-23T16:38:35.866Z,2.60
2018-06-23T16:41:04.574Z,3.10
2018-06-23T16:43:33.384Z,3.00
2018-06-23T16:46:01.926Z,3.17
2018-06-23T16:48:30.483Z,3.47
2018-06-23T16:50:59.104Z,2.90
2018-06-23T16:53:27.778Z,3.43
2018-06-23T16:55:56.492Z,3.40
2018-06-23T16:58:25.366Z,3.13
2018-06-23T17:00:53.993Z,2.87
2018-06-23T17:03:22.755Z,3.07
2018-06-23T17:05:51.336Z,2.80
2018-06-23T17:08:19.995Z,2.80
2018-06-23T17:10:48.669Z,2.90
2018-06-23T17:13:17.393Z,3.10
2018-06-23T17:15:45.940Z,3.20
2018-06-23T17:18:14.591Z,2.53
2018-06-23T17:20:43.262Z,2.87
2018-06-23T17:23:11.883Z,2.90
2018-06-23T17:25:40.707Z,2.47
2018-06-23T17:28:09.576Z,3.53
2018-06-23T17:30:38.282Z,2.67
2018-06-23T17:33:06.991Z,2.90
2018-06-23T17:35:35.694Z,3.00
2018-06-23T17:38:04.599Z,3.10
2018-06-23T17:40:33.308Z,3.40
2018-06-23T17:43:02.123Z,2.80
2018-06-23T17:45:30.638Z,2.70
2018-06-23T17:47:59.378Z,3.23
2018-06-23T17:50:27.995Z,3.20
2018-06-23T17:52:56.959Z,2.83
2018-06-23T17:55:25.651Z,3.17
2018-06-23T17:57:54.813Z,3.40
2018-06-23T18:00:23.250Z,3.50
2018-06-23T18:02:51.862Z,3.67
2018-06-23T18:05:20.723Z,3.77
2018-06-23T18:07:49.447Z,7.20
2018-06-23T18:10:17.975Z,3.20
2018-06-23T18:12:46.602Z,3.37
2018-06-23T18:15:15.411Z,2.93
2018-06-23T18:17:44.149Z,4.07
2018-06-23T18:20:12.760Z,3.20
2018-06-23T18:22:41.552Z,3.20
2018-06-23T18:25:10.427Z,3.63
2018-06-23T18:27:39.295Z,3.43
2018-06-23T18:30:07.951Z,2.50
2018-06-23T18:32:36.901Z,4.10
2018-06-23T18:35:05.682Z,2.73
2018-06-23T18:37:34.500Z,3.17
2018-06-23T18:40:03.232Z,3.63
2018-06-23T18:42:31.992Z,2.93
2018-06-23T18:45:00.559Z,3.10
2018-06-23T18:47:29.259Z,3.20
2018-06-23T18:49:57.945Z,2.80
2018-06-23T18:52:26.710Z,3.57
2018-06-23T18:54:55.403Z,3.27
2018-06-23T18:57:24.218Z,3.50
2018-06-23T18:59:52.850Z,3.37
2018-06-23T19:02:21.740Z,3.20
2018-06-23T19:04:50.302Z,3.57
2018-06-23T19:07:19.100Z,3.27
2018-06-23T19:09:47.946Z,2.93
2018-06-23T19:12:16.719Z,3.53
2018-06-23T19:14:45.361Z,2.90
2018-06-23T19:17:14.199Z,3.47
2018-06-23T19:19:42.962Z,2.80
2018-06-23T19:22:11.551Z,3.33
2018-06-23T19:24:40.229Z,3.57
2018-06-23T19:27:08.988Z,3.90
2018-06-23T19:29:37.763Z,4.33
2018-06-23T19:32:06.408Z,4.00
2018-06-23T19:34:35.257Z,4.00
2018-06-23T19:37:03.957Z,3.93
2018-06-23T19:39:32.563Z,4.60
2018-06-23T19:42:01.267Z,4.60
2018-06-23T19:44:30.036Z,4.17
2018-06-23T19:46:58.631Z,3.90
2018-06-23T19:49:27.280Z,4.37
2018-06-23T19:51:55.978Z,4.30
2018-06-23T19:54:25.063Z,3.77
2018-06-23T19:56:53.642Z,3.93
2018-06-23T19:59:22.183Z,3.93
2018-06-23T20:01:50.825Z,3.60
2018-06-23T20:04:19.716Z,3.90
2018-06-23T20:06:48.411Z,4.20
2018-06-23T20:09:17.175Z,4.07
2018-06-23T20:11:45.951Z,5.30
2018-06-23T20:14:14.666Z,5.10
2018-06-23T20:16:43.319Z,5.07
2018-06-23T20:19:11.916Z,5.87
2018-06-23T20:21:40.629Z,5.00
2018-06-23T20:24:09.332Z,5.80
2018-06-23T20:26:37.977Z,5.50
2018-06-23T20:29:06.828Z,4.70
2018-06-23T20:31:35.430Z,4.77
2018-06-23T20:34:04.932Z,4.40
2018-06-23T20:36:33.839Z,4.27
2018-06-23T20:39:02.678Z,4.80
2018-06-23T20:41:30.947Z,4.67
2018-06-23T20:43:59.524Z,4.10
2018-06-23T20:46:28.226Z,4.40
2018-06-23T20:48:57.031Z,4.20
2018-06-23T20:51:25.616Z,4.70
2018-06-23T20:53:55.188Z,4.03
2018-06-23T20:56:23.898Z,4.10
2018-06-23T20:58:52.576Z,4.10
2018-06-23T21:02:33.206Z,4.40
2018-06-23T21:05:02.229Z,4.03
2018-06-23T21:07:31.719Z,4.17
2018-06-23T21:10:01.069Z,4.80
2018-06-23T21:12:30.500Z,4.50
2018-06-23T21:15:00.267Z,4.43
2018-06-23T21:17:30.080Z,4.67
2018-06-23T21:19:59.484Z,4.63
2018-06-23T21:22:28.886Z,4.80
2018-06-23T21:24:58.440Z,4.53
2018-06-23T21:27:27.592Z,4.43
2018-06-23T21:29:56.846Z,4.90
2018-06-23T21:32:26.133Z,4.60
2018-06-23T21:34:55.712Z,4.43
2018-06-23T21:37:25.004Z,4.20
2018-06-23T21:39:54.417Z,5.20
2018-06-23T21:42:24.097Z,5.07
2018-06-23T21:44:53.809Z,4.70
2018-06-23T21:47:23.958Z,4.50
2018-06-23T21:49:53.291Z,3.90
2018-06-23T21:52:22.719Z,4.23
2018-06-23T21:54:52.041Z,5.17
2018-06-23T21:57:21.728Z,4.73
2018-06-23T21:59:51.015Z,5.17
2018-06-23T22:02:20.627Z,4.80
2018-06-23T22:04:50.280Z,4.70
2018-06-23T22:07:19.750Z,4.13
2018-06-23T22:09:49.360Z,5.10
2018-06-23T22:12:19.039Z,5.13
2018-06-23T22:14:48.781Z,5.37
2018-06-23T22:17:18.182Z,5.20
2018-06-23T22:19:47.595Z,4.43
2018-06-23T22:22:16.916Z,4.73
2018-06-23T22:24:46.313Z,4.70
2018-06-23T22:27:15.744Z,5.30
2018-06-23T22:29:45.618Z,4.90
2018-06-23T22:32:15.318Z,4.80
2018-06-23T22:34:44.880Z,5.10
2018-06-23T22:37:14.391Z,5.30
2018-06-23T22:39:43.752Z,5.37
2018-06-23T22:42:14.165Z,4.60
2018-06-23T22:44:44.715Z,4.90
2018-06-23T22:47:15.162Z,5.23
2018-06-23T22:49:44.567Z,5.13
2018-06-23T22:52:13.939Z,4.67
2018-06-23T22:54:43.280Z,5.43
2018-06-23T22:57:12.631Z,5.60
2018-06-23T22:59:41.982Z,5.67
2018-06-23T23:02:11.439Z,5.20
2018-06-23T23:04:40.814Z,5.50
2018-06-23T23:07:10.232Z,5.27
2018-06-23T23:09:41.714Z,5.30
2018-06-23T23:12:11.302Z,4.90
2018-06-23T23:14:40.588Z,5.20
2018-06-23T23:17:09.962Z,5.60
2018-06-23T23:19:39.517Z,4.97
2018-06-23T23:22:09.322Z,4.97
2018-06-23T23:24:38.726Z,5.00
2018-06-23T23:27:08.472Z,5.63
2018-06-23T23:29:39.070Z,5.23
2018-06-23T23:32:08.382Z,5.00
2018-06-23T23:34:37.814Z,4.83
2018-06-23T23:37:08.852Z,5.40
2018-06-23T23:39:40.294Z,5.17
2018-06-23T23:42:10.061Z,5.40
2018-06-23T23:44:39.368Z,5.60
2018-06-23T23:47:08.736Z,5.00
2018-06-23T23:49:38.024Z,4.70
2018-06-23T23:52:08.414Z,5.47
2018-06-23T23:54:37.973Z,5.23
2018-06-23T23:57:07.481Z,4.87
2018-06-23T23:59:37.145Z,5.67
